sensor_id;sensor_type;location;lat;lon;timestamp;pressure;altitude;pressure_sealevel;temperature;humidity
25526;BME280;13424;48.424;11.258;2023-12-20T00:02:16;95531.66;;;8.99;57.84
25526;BME280;13424;48.424;11.258;2023-12-20T00:04:42;95541.59;;;8.91;57.24
25526;BME280;13424;48.424;11.258;2023-12-20T00:07:08;95525.31;;;8.88;56.81
25526;BME280;13424;48.424;11.258;2023-12-20T00:09:34;95527.03;;;8.71;57.30
25526;BME280;13424;48.424;11.258;2023-12-20T00:12:00;95536.41;;;8.85;57.32
25526;BME280;13424;48.424;11.258;2023-12-20T00:14:26;95531.91;;;8.85;57.71
25526;BME280;13424;48.424;11.258;2023-12-20T00:16:52;95526.94;;;8.89;56.83
25526;BME280;13424;48.424;11.258;2023-12-20T00:19:18;95506.81;;;8.70;56.86
25526;BME280;13424;48.424;11.258;2023-12-20T00:21:44;95507.84;;;8.92;56.50
25526;BME280;13424;48.424;11.258;2023-12-20T00:24:10;95506.81;;;8.81;57.33
25526;BME280;13424;48.424;11.258;2023-12-20T00:26:36;95509.13;;;8.89;57.33
25526;BME280;13424;48.424;11.258;2023-12-20T00:29:02;95503.81;;;9.01;57.39
25526;BME280;13424;48.424;11.258;2023-12-20T00:31:28;95501.47;;;8.81;57.05
25526;BME280;13424;48.424;11.258;2023-12-20T00:33:54;95503.81;;;9.01;57.22
25526;BME280;13424;48.424;11.258;2023-12-20T00:36:24;95493.63;;;8.98;56.62
25526;BME280;13424;48.424;11.258;2023-12-20T00:38:50;95483.19;;;9.08;56.03
25526;BME280;13424;48.424;11.258;2023-12-20T00:41:17;95478.19;;;9.35;56.50
25526;BME280;13424;48.424;11.258;2023-12-20T00:43:43;95481.13;;;8.87;56.31
25526;BME280;13424;48.424;11.258;2023-12-20T00:46:10;95500.91;;;9.03;55.60
25526;BME280;13424;48.424;11.258;2023-12-20T00:48:36;95501.00;;;9.08;56.11
25526;BME280;13424;48.424;11.258;2023-12-20T00:51:02;95510.28;;;9.17;55.43
25526;BME280;13424;48.424;11.258;2023-12-20T00:53:29;95503.81;;;8.78;56.19
25526;BME280;13424;48.424;11.258;2023-12-20T00:55:55;95513.97;;;8.81;56.35
25526;BME280;13424;48.424;11.258;2023-12-20T00:58:21;95517.91;;;8.90;55.91
25526;BME280;13424;48.424;11.258;2023-12-20T01:00:47;95526.72;;;9.02;56.96
25526;BME280;13424;48.424;11.258;2023-12-20T01:03:13;95515.47;;;8.88;57.24
25526;BME280;13424;48.424;11.258;2023-12-20T01:05:41;95512.34;;;9.27;57.30
25526;BME280;13424;48.424;11.258;2023-12-20T01:08:07;95506.47;;;9.01;56.84
25526;BME280;13424;48.424;11.258;2023-12-20T01:10:33;95508.19;;;8.84;57.40
25526;BME280;13424;48.424;11.258;2023-12-20T01:13:08;95500.00;;;8.85;57.43
25526;BME280;13424;48.424;11.258;2023-12-20T01:15:34;95503.00;;;9.12;57.47
25526;BME280;13424;48.424;11.258;2023-12-20T01:18:00;95507.38;;;9.07;58.33
25526;BME280;13424;48.424;11.258;2023-12-20T01:20:27;95498.34;;;8.84;58.61
25526;BME280;13424;48.424;11.258;2023-12-20T01:22:53;95492.47;;;8.94;58.19
25526;BME280;13424;48.424;11.258;2023-12-20T01:25:19;95499.84;;;8.68;59.38
25526;BME280;13424;48.424;11.258;2023-12-20T01:27:45;95482.06;;;8.81;59.25
25526;BME280;13424;48.424;11.258;2023-12-20T01:30:11;95488.41;;;8.91;58.93
25526;BME280;13424;48.424;11.258;2023-12-20T01:32:38;95483.19;;;9.08;59.03
25526;BME280;13424;48.424;11.258;2023-12-20T01:35:04;95470.47;;;8.99;59.08
25526;BME280;13424;48.424;11.258;2023-12-20T01:37:30;95464.25;;;8.93;59.41
25526;BME280;13424;48.424;11.258;2023-12-20T01:39:56;95459.28;;;8.97;59.14
25526;BME280;13424;48.424;11.258;2023-12-20T01:42:22;95458.22;;;9.09;59.01
25526;BME280;13424;48.424;11.258;2023-12-20T01:44:49;95455.78;;;8.84;59.51
25526;BME280;13424;48.424;11.258;2023-12-20T01:47:15;95457.19;;;9.10;59.83
25526;BME280;13424;48.424;11.258;2023-12-20T01:49:41;95450.38;;;8.91;60.19
25526;BME280;13424;48.424;11.258;2023-12-20T01:52:07;95444.34;;;8.84;60.56
25526;BME280;13424;48.424;11.258;2023-12-20T01:54:35;95440.28;;;9.05;60.33
25526;BME280;13424;48.424;11.258;2023-12-20T01:57:02;95433.00;;;9.00;60.42
25526;BME280;13424;48.424;11.258;2023-12-20T01:59:29;95435.00;;;8.81;60.65
25526;BME280;13424;48.424;11.258;2023-12-20T02:01:55;95433.16;;;8.93;61.04
25526;BME280;13424;48.424;11.258;2023-12-20T02:04:21;95437.78;;;8.86;60.46
25526;BME280;13424;48.424;11.258;2023-12-20T02:06:48;95424.56;;;9.03;60.70
25526;BME280;13424;48.424;11.258;2023-12-20T02:09:55;95419.25;;;8.91;60.64
25526;BME280;13424;48.424;11.258;2023-12-20T02:12:21;95405.47;;;9.06;60.14
25526;BME280;13424;48.424;11.258;2023-12-20T02:14:49;95398.78;;;9.04;60.05
25526;BME280;13424;48.424;11.258;2023-12-20T02:17:16;95398.56;;;8.82;59.93
25526;BME280;13424;48.424;11.258;2023-12-20T02:19:43;95395.06;;;9.16;60.17
25526;BME280;13424;48.424;11.258;2023-12-20T02:22:10;95393.69;;;9.02;60.14
25526;BME280;13424;48.424;11.258;2023-12-20T02:24:37;95402.97;;;8.88;60.60
25526;BME280;13424;48.424;11.258;2023-12-20T02:27:06;95403.16;;;8.98;60.28
25526;BME280;13424;48.424;11.258;2023-12-20T02:29:36;95410.72;;;8.78;60.86
25526;BME280;13424;48.424;11.258;2023-12-20T02:32:02;95414.31;;;8.48;61.33
25526;BME280;13424;48.424;11.258;2023-12-20T02:34:29;95411.44;;;8.61;60.77
25526;BME280;13424;48.424;11.258;2023-12-20T02:36:55;95406.22;;;8.78;60.99
25526;BME280;13424;48.424;11.258;2023-12-20T02:39:23;95409.78;;;8.84;60.92
25526;BME280;13424;48.424;11.258;2023-12-20T02:41:49;95406.69;;;8.63;61.23
25526;BME280;13424;48.424;11.258;2023-12-20T02:44:15;95402.63;;;8.73;61.10
25526;BME280;13424;48.424;11.258;2023-12-20T02:46:41;95401.59;;;8.74;61.30
25526;BME280;13424;48.424;11.258;2023-12-20T02:49:07;95399.84;;;8.79;60.98
25526;BME280;13424;48.424;11.258;2023-12-20T02:51:33;95408.38;;;9.16;60.42
25526;BME280;13424;48.424;11.258;2023-12-20T02:53:59;95400.53;;;8.75;60.83
25526;BME280;13424;48.424;11.258;2023-12-20T02:56:25;95416.03;;;9.01;61.19
25526;BME280;13424;48.424;11.258;2023-12-20T02:58:52;95411.78;;;8.53;62.58
25526;BME280;13424;48.424;11.258;2023-12-20T03:01:17;95409.09;;;8.65;62.57
25526;BME280;13424;48.424;11.258;2023-12-20T03:03:43;95405.63;;;8.76;62.20
25526;BME280;13424;48.424;11.258;2023-12-20T03:06:09;95412.34;;;8.79;62.63
25526;BME280;13424;48.424;11.258;2023-12-20T03:08:35;95411.75;;;8.77;62.46
25526;BME280;13424;48.424;11.258;2023-12-20T03:11:01;95425.38;;;8.68;63.27
25526;BME280;13424;48.424;11.258;2023-12-20T03:13:27;95420.31;;;8.67;62.44
25526;BME280;13424;48.424;11.258;2023-12-20T03:15:53;95427.13;;;8.75;63.50
25526;BME280;13424;48.424;11.258;2023-12-20T03:18:19;95428.75;;;8.76;63.75
25526;BME280;13424;48.424;11.258;2023-12-20T03:20:46;95429.78;;;8.75;64.51
25526;BME280;13424;48.424;11.258;2023-12-20T03:23:13;95432.53;;;8.33;65.76
25526;BME280;13424;48.424;11.258;2023-12-20T03:25:39;95441.81;;;8.12;67.51
25526;BME280;13424;48.424;11.258;2023-12-20T03:28:05;95441.59;;;8.13;68.85
25526;BME280;13424;48.424;11.258;2023-12-20T03:30:31;95443.66;;;7.70;70.23
25526;BME280;13424;48.424;11.258;2023-12-20T03:32:57;95447.09;;;7.59;71.89
25526;BME280;13424;48.424;11.258;2023-12-20T03:35:23;95451.22;;;7.54;73.21
25526;BME280;13424;48.424;11.258;2023-12-20T03:37:49;95452.47;;;7.34;74.85
25526;BME280;13424;48.424;11.258;2023-12-20T03:40:15;95449.03;;;7.33;75.43
25526;BME280;13424;48.424;11.258;2023-12-20T03:42:41;95456.25;;;7.44;76.03
25526;BME280;13424;48.424;11.258;2023-12-20T03:45:08;95458.88;;;7.63;75.48
25526;BME280;13424;48.424;11.258;2023-12-20T03:47:34;95460.53;;;7.45;76.27
25526;BME280;13424;48.424;11.258;2023-12-20T03:50:00;95463.44;;;7.55;76.55
25526;BME280;13424;48.424;11.258;2023-12-20T03:52:26;95459.13;;;7.24;77.65
25526;BME280;13424;48.424;11.258;2023-12-20T03:54:52;95457.34;;;7.55;76.88
25526;BME280;13424;48.424;11.258;2023-12-20T03:57:19;95450.19;;;7.55;77.53
25526;BME280;13424;48.424;11.258;2023-12-20T03:59:45;95448.63;;;7.66;77.18
25526;BME280;13424;48.424;11.258;2023-12-20T04:02:11;95449.28;;;7.62;77.43
25526;BME280;13424;48.424;11.258;2023-12-20T04:04:37;95446.38;;;7.15;78.91
25526;BME280;13424;48.424;11.258;2023-12-20T04:07:03;95438.88;;;7.30;79.01
25526;BME280;13424;48.424;11.258;2023-12-20T04:09:29;95439.72;;;7.42;78.66
25526;BME280;13424;48.424;11.258;2023-12-20T04:11:55;95440.03;;;7.34;79.64
25526;BME280;13424;48.424;11.258;2023-12-20T04:14:21;95446.38;;;7.51;79.49
25526;BME280;13424;48.424;11.258;2023-12-20T04:16:47;95451.56;;;7.58;79.54
25526;BME280;13424;48.424;11.258;2023-12-20T04:19:13;95436.66;;;7.27;80.90
25526;BME280;13424;48.424;11.258;2023-12-20T04:21:39;95454.00;;;7.11;82.52
25526;BME280;13424;48.424;11.258;2023-12-20T04:28:05;95455.25;;;7.27;82.20
25526;BME280;13424;48.424;11.258;2023-12-20T04:30:31;95458.91;;;7.08;82.99
25526;BME280;13424;48.424;11.258;2023-12-20T04:32:57;95461.13;;;7.29;82.08
25526;BME280;13424;48.424;11.258;2023-12-20T04:35:23;95458.69;;;7.09;83.23
25526;BME280;13424;48.424;11.258;2023-12-20T04:37:49;95454.94;;;6.98;83.85
25526;BME280;13424;48.424;11.258;2023-12-20T04:40:15;95470.31;;;6.90;84.70
25526;BME280;13424;48.424;11.258;2023-12-20T04:42:41;95476.53;;;7.20;83.26
25526;BME280;13424;48.424;11.258;2023-12-20T04:45:08;95468.47;;;7.09;84.26
25526;BME280;13424;48.424;11.258;2023-12-20T04:47:34;95455.38;;;6.95;84.72
25526;BME280;13424;48.424;11.258;2023-12-20T04:53:53;95465.25;;;7.07;84.82
25526;BME280;13424;48.424;11.258;2023-12-20T04:56:19;95465.59;;;7.47;83.19
25526;BME280;13424;48.424;11.258;2023-12-20T04:58:45;95469.66;;;6.94;85.46
25526;BME280;13424;48.424;11.258;2023-12-20T05:01:12;95473.22;;;7.07;85.30
25526;BME280;13424;48.424;11.258;2023-12-20T05:03:38;95482.66;;;7.21;84.08
25526;BME280;13424;48.424;11.258;2023-12-20T05:06:04;95476.00;;;7.12;85.21
25526;BME280;13424;48.424;11.258;2023-12-20T05:08:30;95483.97;;;7.12;84.86
25526;BME280;13424;48.424;11.258;2023-12-20T05:10:56;95484.56;;;6.95;85.22
25526;BME280;13424;48.424;11.258;2023-12-20T05:13:23;95480.53;;;6.86;85.88
25526;BME280;13424;48.424;11.258;2023-12-20T05:15:48;95489.34;;;7.23;85.26
25526;BME280;13424;48.424;11.258;2023-12-20T05:18:14;95479.09;;;6.90;86.06
25526;BME280;13424;48.424;11.258;2023-12-20T05:20:41;95485.59;;;7.13;85.26
25526;BME280;13424;48.424;11.258;2023-12-20T05:23:07;95491.25;;;7.16;85.68
25526;BME280;13424;48.424;11.258;2023-12-20T05:25:33;95482.31;;;6.92;86.36
25526;BME280;13424;48.424;11.258;2023-12-20T05:27:59;95493.09;;;6.97;85.68
25526;BME280;13424;48.424;11.258;2023-12-20T05:34:16;95484.97;;;6.92;85.38
25526;BME280;13424;48.424;11.258;2023-12-20T05:36:42;95495.22;;;6.89;85.37
25526;BME280;13424;48.424;11.258;2023-12-20T05:39:08;95499.28;;;7.10;84.75
25526;BME280;13424;48.424;11.258;2023-12-20T05:41:34;95503.88;;;7.21;84.41
25526;BME280;13424;48.424;11.258;2023-12-20T05:44:00;95513.56;;;6.90;85.58
25526;BME280;13424;48.424;11.258;2023-12-20T05:46:26;95508.75;;;6.81;84.92
25526;BME280;13424;48.424;11.258;2023-12-20T05:48:53;95515.81;;;7.12;84.48
25526;BME280;13424;48.424;11.258;2023-12-20T05:51:19;95519.66;;;6.91;84.92
25526;BME280;13424;48.424;11.258;2023-12-20T05:53:45;95529.94;;;7.06;84.50
25526;BME280;13424;48.424;11.258;2023-12-20T05:56:11;95528.50;;;7.28;83.72
25526;BME280;13424;48.424;11.258;2023-12-20T05:58:39;95520.06;;;7.13;84.22
25526;BME280;13424;48.424;11.258;2023-12-20T06:01:05;95532.75;;;6.86;85.34
25526;BME280;13424;48.424;11.258;2023-12-20T06:04:36;95546.13;;;6.97;85.37
25526;BME280;13424;48.424;11.258;2023-12-20T06:07:03;95557.22;;;7.13;84.54
25526;BME280;13424;48.424;11.258;2023-12-20T06:09:29;95565.00;;;7.08;84.58
25526;BME280;13424;48.424;11.258;2023-12-20T06:11:55;95566.47;;;7.04;84.24
25526;BME280;13424;48.424;11.258;2023-12-20T06:14:21;95562.31;;;6.89;85.43
25526;BME280;13424;48.424;11.258;2023-12-20T06:16:47;95567.19;;;7.36;83.38
25526;BME280;13424;48.424;11.258;2023-12-20T06:19:13;95561.06;;;6.67;85.61
25526;BME280;13424;48.424;11.258;2023-12-20T06:21:39;95563.41;;;6.82;85.53
25526;BME280;13424;48.424;11.258;2023-12-20T06:24:05;95572.66;;;6.97;85.46
25526;BME280;13424;48.424;11.258;2023-12-20T06:26:31;95565.22;;;7.06;84.88
25526;BME280;13424;48.424;11.258;2023-12-20T06:28:57;95559.72;;;7.26;83.59
25526;BME280;13424;48.424;11.258;2023-12-20T06:31:24;95551.84;;;6.94;84.27
25526;BME280;13424;48.424;11.258;2023-12-20T06:33:50;95561.38;;;7.02;84.49
25526;BME280;13424;48.424;11.258;2023-12-20T06:36:26;95563.22;;;7.02;84.50
25526;BME280;13424;48.424;11.258;2023-12-20T06:38:52;95564.53;;;6.92;85.05
25526;BME280;13424;48.424;11.258;2023-12-20T06:41:19;95570.22;;;6.96;84.19
25526;BME280;13424;48.424;11.258;2023-12-20T06:43:45;95579.13;;;7.02;83.95
25526;BME280;13424;48.424;11.258;2023-12-20T06:46:11;95593.41;;;7.00;83.96
25526;BME280;13424;48.424;11.258;2023-12-20T06:48:39;95579.34;;;6.75;85.10
25526;BME280;13424;48.424;11.258;2023-12-20T06:51:06;95593.09;;;6.90;84.55
25526;BME280;13424;48.424;11.258;2023-12-20T06:53:32;95590.72;;;6.82;84.34
25526;BME280;13424;48.424;11.258;2023-12-20T06:55:58;95589.41;;;6.66;85.69
25526;BME280;13424;48.424;11.258;2023-12-20T06:58:24;95596.81;;;6.83;85.22
25526;BME280;13424;48.424;11.258;2023-12-20T07:00:51;95591.03;;;6.67;85.57
25526;BME280;13424;48.424;11.258;2023-12-20T07:03:17;95602.47;;;6.61;85.79
25526;BME280;13424;48.424;11.258;2023-12-20T07:05:44;95606.38;;;6.59;86.01
25526;BME280;13424;48.424;11.258;2023-12-20T07:08:10;95612.41;;;6.72;85.43
25526;BME280;13424;48.424;11.258;2023-12-20T07:10:36;95612.13;;;6.56;86.10
25526;BME280;13424;48.424;11.258;2023-12-20T07:13:03;95623.06;;;6.66;85.42
25526;BME280;13424;48.424;11.258;2023-12-20T07:15:29;95627.41;;;6.54;85.99
25526;BME280;13424;48.424;11.258;2023-12-20T07:17:55;95620.94;;;6.43;86.37
25526;BME280;13424;48.424;11.258;2023-12-20T07:20:21;95621.94;;;6.49;86.25
25526;BME280;13424;48.424;11.258;2023-12-20T07:23:15;95621.44;;;6.65;85.32
25526;BME280;13424;48.424;11.258;2023-12-20T07:25:41;95630.53;;;7.00;84.55
25526;BME280;13424;48.424;11.258;2023-12-20T07:28:07;95632.09;;;6.83;84.50
25526;BME280;13424;48.424;11.258;2023-12-20T07:30:33;95641.09;;;6.82;85.19
25526;BME280;13424;48.424;11.258;2023-12-20T07:32:59;95640.53;;;6.74;85.49
25526;BME280;13424;48.424;11.258;2023-12-20T07:35:26;95645.88;;;6.98;84.14
25526;BME280;13424;48.424;11.258;2023-12-20T07:37:52;95631.88;;;6.85;85.16
25526;BME280;13424;48.424;11.258;2023-12-20T07:40:18;95643.00;;;7.25;83.54
25526;BME280;13424;48.424;11.258;2023-12-20T07:42:44;95640.16;;;6.95;84.31
25526;BME280;13424;48.424;11.258;2023-12-20T07:45:10;95649.91;;;7.01;84.06
25526;BME280;13424;48.424;11.258;2023-12-20T07:47:37;95645.16;;;7.10;83.88
25526;BME280;13424;48.424;11.258;2023-12-20T07:50:04;95658.16;;;7.18;83.43
25526;BME280;13424;48.424;11.258;2023-12-20T07:52:30;95662.38;;;7.00;84.21
25526;BME280;13424;48.424;11.258;2023-12-20T07:54:56;95662.69;;;7.11;84.35
25526;BME280;13424;48.424;11.258;2023-12-20T07:57:23;95670.88;;;7.09;84.14
25526;BME280;13424;48.424;11.258;2023-12-20T07:59:49;95674.19;;;7.30;83.08
25526;BME280;13424;48.424;11.258;2023-12-20T08:02:15;95682.09;;;7.36;82.66
25526;BME280;13424;48.424;11.258;2023-12-20T08:04:41;95680.88;;;7.32;83.50
25526;BME280;13424;48.424;11.258;2023-12-20T08:07:07;95677.16;;;7.15;83.97
25526;BME280;13424;48.424;11.258;2023-12-20T08:09:33;95674.84;;;6.93;85.29
25526;BME280;13424;48.424;11.258;2023-12-20T08:12:02;95682.63;;;7.20;84.45
25526;BME280;13424;48.424;11.258;2023-12-20T08:14:28;95683.72;;;7.37;84.17
25526;BME280;13424;48.424;11.258;2023-12-20T08:16:54;95680.75;;;7.27;83.66
25526;BME280;13424;48.424;11.258;2023-12-20T08:19:20;95685.19;;;7.02;85.35
25526;BME280;13424;48.424;11.258;2023-12-20T08:21:46;95676.44;;;7.26;84.61
25526;BME280;13424;48.424;11.258;2023-12-20T08:24:12;95673.69;;;7.39;83.82
25526;BME280;13424;48.424;11.258;2023-12-20T08:26:38;95667.47;;;7.27;84.18
25526;BME280;13424;48.424;11.258;2023-12-20T08:29:04;95680.41;;;7.42;84.41
25526;BME280;13424;48.424;11.258;2023-12-20T08:31:31;95682.19;;;7.23;84.45
25526;BME280;13424;48.424;11.258;2023-12-20T08:33:57;95683.78;;;7.31;84.27
25526;BME280;13424;48.424;11.258;2023-12-20T08:36:23;95675.72;;;7.44;84.38
25526;BME280;13424;48.424;11.258;2023-12-20T08:38:50;95678.09;;;7.27;84.72
25526;BME280;13424;48.424;11.258;2023-12-20T08:41:17;95691.16;;;7.72;83.41
25526;BME280;13424;48.424;11.258;2023-12-20T08:43:43;95682.97;;;7.30;83.40
25526;BME280;13424;48.424;11.258;2023-12-20T08:46:15;95693.03;;;7.46;84.04
25526;BME280;13424;48.424;11.258;2023-12-20T08:48:41;95690.66;;;7.38;84.13
25526;BME280;13424;48.424;11.258;2023-12-20T08:51:07;95687.47;;;7.30;84.52
25526;BME280;13424;48.424;11.258;2023-12-20T08:53:35;95682.72;;;7.32;84.99
25526;BME280;13424;48.424;11.258;2023-12-20T08:56:01;95678.56;;;7.42;83.88
25526;BME280;13424;48.424;11.258;2023-12-20T08:58:28;95676.47;;;7.51;84.35
25526;BME280;13424;48.424;11.258;2023-12-20T09:00:54;95689.78;;;7.44;84.13
25526;BME280;13424;48.424;11.258;2023-12-20T09:03:20;95677.97;;;7.15;85.34
25526;BME280;13424;48.424;11.258;2023-12-20T09:05:46;95683.31;;;7.34;84.60
25526;BME280;13424;48.424;11.258;2023-12-20T09:08:12;95690.69;;;7.56;84.00
25526;BME280;13424;48.424;11.258;2023-12-20T09:10:38;95683.94;;;7.36;84.60
25526;BME280;13424;48.424;11.258;2023-12-20T09:13:04;95672.78;;;7.27;84.79
25526;BME280;13424;48.424;11.258;2023-12-20T09:15:31;95674.97;;;7.55;83.67
25526;BME280;13424;48.424;11.258;2023-12-20T09:17:59;95670.19;;;7.64;83.65
25526;BME280;13424;48.424;11.258;2023-12-20T09:20:51;95674.72;;;7.81;83.23
25526;BME280;13424;48.424;11.258;2023-12-20T09:23:17;95673.31;;;7.97;83.12
25526;BME280;13424;48.424;11.258;2023-12-20T09:25:44;95680.88;;;8.00;82.79
25526;BME280;13424;48.424;11.258;2023-12-20T09:28:10;95668.81;;;7.98;83.20
25526;BME280;13424;48.424;11.258;2023-12-20T09:30:36;95671.13;;;7.94;82.62
25526;BME280;13424;48.424;11.258;2023-12-20T09:33:05;95673.41;;;8.09;82.78
25526;BME280;13424;48.424;11.258;2023-12-20T09:35:33;95670.53;;;8.10;82.46
25526;BME280;13424;48.424;11.258;2023-12-20T09:37:59;95672.88;;;8.19;82.07
25526;BME280;13424;48.424;11.258;2023-12-20T09:40:26;95677.78;;;8.40;81.29
25526;BME280;13424;48.424;11.258;2023-12-20T09:45:24;95667.13;;;8.22;81.70
25526;BME280;13424;48.424;11.258;2023-12-20T09:47:53;95674.19;;;8.64;80.56
25526;BME280;13424;48.424;11.258;2023-12-20T09:50:22;95672.06;;;8.36;81.27
25526;BME280;13424;48.424;11.258;2023-12-20T09:52:53;95673.78;;;8.31;81.75
25526;BME280;13424;48.424;11.258;2023-12-20T09:55:22;95670.88;;;8.32;82.20
25526;BME280;13424;48.424;11.258;2023-12-20T09:57:49;95663.91;;;8.38;81.53
25526;BME280;13424;48.424;11.258;2023-12-20T10:00:15;95662.47;;;8.54;81.53
25526;BME280;13424;48.424;11.258;2023-12-20T10:03:06;95668.59;;;8.54;81.34
25526;BME280;13424;48.424;11.258;2023-12-20T10:05:34;95668.91;;;8.46;81.22
25526;BME280;13424;48.424;11.258;2023-12-20T10:08:01;95669.34;;;8.25;81.86
25526;BME280;13424;48.424;11.258;2023-12-20T10:10:28;95672.56;;;8.27;82.02
25526;BME280;13424;48.424;11.258;2023-12-20T10:13:09;95675.78;;;8.35;81.38
25526;BME280;13424;48.424;11.258;2023-12-20T10:15:36;95668.84;;;8.16;82.37
25526;BME280;13424;48.424;11.258;2023-12-20T10:18:04;95663.38;;;8.78;80.72
25526;BME280;13424;48.424;11.258;2023-12-20T10:20:31;95664.69;;;8.68;81.17
25526;BME280;13424;48.424;11.258;2023-12-20T10:22:58;95659.00;;;8.53;81.17
25526;BME280;13424;48.424;11.258;2023-12-20T10:25:26;95654.91;;;8.69;81.05
25526;BME280;13424;48.424;11.258;2023-12-20T10:28:18;95656.56;;;8.33;81.82
25526;BME280;13424;48.424;11.258;2023-12-20T10:30:46;95655.06;;;8.56;81.38
25526;BME280;13424;48.424;11.258;2023-12-20T10:33:13;95650.81;;;8.36;81.61
25526;BME280;13424;48.424;11.258;2023-12-20T10:35:40;95648.22;;;8.11;82.00
25526;BME280;13424;48.424;11.258;2023-12-20T10:38:07;95649.84;;;8.31;82.20
25526;BME280;13424;48.424;11.258;2023-12-20T10:40:36;95647.34;;;8.54;81.52
25526;BME280;13424;48.424;11.258;2023-12-20T10:43:03;95640.91;;;8.74;80.35
25526;BME280;13424;48.424;11.258;2023-12-20T10:45:29;95643.72;;;8.12;81.74
25526;BME280;13424;48.424;11.258;2023-12-20T10:47:56;95642.03;;;8.36;82.42
25526;BME280;13424;48.424;11.258;2023-12-20T10:50:26;95646.88;;;8.57;81.99
25526;BME280;13424;48.424;11.258;2023-12-20T10:52:52;95647.97;;;8.38;82.42
25526;BME280;13424;48.424;11.258;2023-12-20T10:55:25;95639.28;;;8.43;81.87
25526;BME280;13424;48.424;11.258;2023-12-20T10:57:53;95636.97;;;8.64;80.85
25526;BME280;13424;48.424;11.258;2023-12-20T11:00:22;95633.63;;;8.39;82.06
25526;BME280;13424;48.424;11.258;2023-12-20T11:02:50;95646.09;;;8.20;82.60
25526;BME280;13424;48.424;11.258;2023-12-20T11:06:14;95652.50;;;8.12;83.05
25526;BME280;13424;48.424;11.258;2023-12-20T11:12:32;95647.50;;;8.23;82.51
25526;BME280;13424;48.424;11.258;2023-12-20T11:15:01;95644.25;;;8.02;82.67
25526;BME280;13424;48.424;11.258;2023-12-20T11:17:31;95647.13;;;8.67;81.08
25526;BME280;13424;48.424;11.258;2023-12-20T11:22:31;95638.09;;;8.68;79.36
25526;BME280;13424;48.424;11.258;2023-12-20T11:26:10;95640.50;;;8.10;80.49
25526;BME280;13424;48.424;11.258;2023-12-20T11:28:36;95630.31;;;8.07;81.05
25526;BME280;13424;48.424;11.258;2023-12-20T11:31:02;95641.72;;;8.26;78.04
25526;BME280;13424;48.424;11.258;2023-12-20T11:33:37;95624.72;;;8.45;77.80
25526;BME280;13424;48.424;11.258;2023-12-20T11:36:13;95634.69;;;8.50;77.44
25526;BME280;13424;48.424;11.258;2023-12-20T11:39:00;95632.53;;;8.58;76.95
25526;BME280;13424;48.424;11.258;2023-12-20T11:41:31;95624.63;;;8.22;77.40
25526;BME280;13424;48.424;11.258;2023-12-20T11:43:58;95630.34;;;8.37;76.95
25526;BME280;13424;48.424;11.258;2023-12-20T11:46:25;95628.22;;;8.27;76.49
25526;BME280;13424;48.424;11.258;2023-12-20T11:48:51;95637.03;;;8.58;76.78
25526;BME280;13424;48.424;11.258;2023-12-20T11:51:18;95630.06;;;8.27;76.00
25526;BME280;13424;48.424;11.258;2023-12-20T11:53:44;95626.59;;;8.45;77.37
25526;BME280;13424;48.424;11.258;2023-12-20T11:56:10;95622.69;;;8.10;76.26
25526;BME280;13424;48.424;11.258;2023-12-20T11:58:36;95618.41;;;8.46;76.87
25526;BME280;13424;48.424;11.258;2023-12-20T12:01:03;95619.69;;;8.55;76.67
25526;BME280;13424;48.424;11.258;2023-12-20T12:03:30;95625.34;;;8.10;76.59
25526;BME280;13424;48.424;11.258;2023-12-20T12:05:57;95625.63;;;8.21;76.70
25526;BME280;13424;48.424;11.258;2023-12-20T12:08:23;95612.13;;;8.41;75.57
25526;BME280;13424;48.424;11.258;2023-12-20T12:10:49;95615.94;;;8.75;74.74
25526;BME280;13424;48.424;11.258;2023-12-20T12:13:15;95621.81;;;8.35;74.57
25526;BME280;13424;48.424;11.258;2023-12-20T12:15:42;95612.97;;;8.04;74.17
25526;BME280;13424;48.424;11.258;2023-12-20T12:18:08;95595.78;;;7.89;72.89
25526;BME280;13424;48.424;11.258;2023-12-20T12:20:34;95604.88;;;8.29;72.85
25526;BME280;13424;48.424;11.258;2023-12-20T12:23:05;95607.28;;;7.64;72.56
25526;BME280;13424;48.424;11.258;2023-12-20T12:25:36;95601.19;;;7.82;73.08
25526;BME280;13424;48.424;11.258;2023-12-20T12:28:14;95592.09;;;8.08;72.90
25526;BME280;13424;48.424;11.258;2023-12-20T12:30:41;95587.09;;;8.00;74.14
25526;BME280;13424;48.424;11.258;2023-12-20T12:33:07;95584.34;;;8.06;74.20
25526;BME280;13424;48.424;11.258;2023-12-20T12:35:34;95589.44;;;7.71;73.41
25526;BME280;13424;48.424;11.258;2023-12-20T12:38:00;95587.25;;;7.87;73.11
25526;BME280;13424;48.424;11.258;2023-12-20T12:40:28;95596.72;;;8.12;72.52
25526;BME280;13424;48.424;11.258;2023-12-20T12:42:55;95600.97;;;8.32;72.34
25526;BME280;13424;48.424;11.258;2023-12-20T12:45:21;95599.34;;;7.64;72.90
25526;BME280;13424;48.424;11.258;2023-12-20T12:47:48;95609.50;;;8.04;72.38
25526;BME280;13424;48.424;11.258;2023-12-20T12:50:14;95615.03;;;8.02;71.98
25526;BME280;13424;48.424;11.258;2023-12-20T12:52:40;95607.91;;;7.66;72.69
25526;BME280;13424;48.424;11.258;2023-12-20T12:55:06;95604.84;;;7.81;71.75
25526;BME280;13424;48.424;11.258;2023-12-20T12:57:33;95599.69;;;7.49;72.01
25526;BME280;13424;48.424;11.258;2023-12-20T12:59:59;95601.03;;;7.59;72.01
25526;BME280;13424;48.424;11.258;2023-12-20T13:02:25;95605.38;;;7.53;72.69
25526;BME280;13424;48.424;11.258;2023-12-20T13:04:51;95617.50;;;7.42;72.56
25526;BME280;13424;48.424;11.258;2023-12-20T13:07:17;95611.94;;;7.50;72.62
25526;BME280;13424;48.424;11.258;2023-12-20T13:09:43;95605.38;;;7.53;70.97
25526;BME280;13424;48.424;11.258;2023-12-20T13:12:09;95618.34;;;7.43;72.01
25526;BME280;13424;48.424;11.258;2023-12-20T13:14:36;95611.13;;;7.50;71.25
25526;BME280;13424;48.424;11.258;2023-12-20T13:17:06;95620.38;;;7.84;71.10
25526;BME280;13424;48.424;11.258;2023-12-20T13:19:32;95610.00;;;7.57;71.12
25526;BME280;13424;48.424;11.258;2023-12-20T13:21:59;95610.34;;;7.68;70.68
25526;BME280;13424;48.424;11.258;2023-12-20T13:24:25;95615.41;;;7.51;70.32